Blessing Sw — 3FIP7 — position and weather

sailwx.info

Track history (hours):
 
Tides and Currents Weather Stations Pressure Air Temp Water Temp Dewpoint Dewpoint Depression Visibility Wind Speed Wind Dir Waves Ship Positions

Blessing Sw

Last reported at 2017-Dec-10 23:24 UTC. Time now 2017-Dec-15 15:52 UTC.
Position N 36°10' E 026°31'.

Length 171 m; draft 8.6 m.

Type: Cargo ship. MMSI: 372085000.

Date/timePositionNaut miles runAvg speedWind from/ knotsBaromVisibWave heightAir tempDewpointWater temp
2017-Dec-10 23:24N 36°10' E 026°31'513.0
2017-Dec-10 22:59N 36°09' E 026°24'613.5
2017-Dec-10 22:30N 36°08' E 026°17'713.5
2017-Dec-10 22:00N 36°07' E 026°08'613.2
2017-Dec-10 21:31N 36°06' E 026°00'713.0
2017-Dec-10 21:01N 36°06' E 025°52'612.9
2017-Dec-10 20:31N 36°05' E 025°44'612.7
2017-Dec-10 20:00N 36°04' E 025°37'612.7
2017-Dec-10 19:31N 36°03' E 025°29'612.7
2017-Dec-10 19:01N 36°02' E 025°21'713.2
2017-Dec-10 18:30N 36°01' E 025°13'713.4
2017-Dec-10 18:00N 35°60' E 025°05'713.5
2017-Dec-10 17:31N 35°59' E 024°56'713.4
2017-Dec-10 17:00N 35°59' E 024°48'713.2
2017-Dec-10 16:30N 35°59' E 024°40'713.5
2017-Dec-10 16:01N 35°59' E 024°32'713.6
2017-Dec-10 15:31N 35°59' E 024°23'713.0
2017-Dec-10 15:01N 35°59' E 024°15'46512.9
2017-Dec-09 02:54N 36°06' E 014°41'513.2
2017-Dec-09 02:30N 36°08' E 014°35'613.0
2017-Dec-09 02:00N 36°11' E 014°27'713.1
2017-Dec-09 01:30N 36°13' E 014°20'613.0
2017-Dec-09 01:00N 36°16' E 014°12'712.8
2017-Dec-09 00:30N 36°18' E 014°05'612.8
2017-Dec-09 00:00N 36°21' E 013°58'612.9
2017-Dec-08 23:30N 36°23' E 013°50'  
2017-Dec-04 05:33N 38°01' W 009°54'112.6
2017-Dec-04 05:27N 38°02' W 009°55'3012.3
2017-Dec-04 03:02N 38°31' W 010°03'312.2
2017-Dec-04 02:49N 38°34' W 010°04'412.4
2017-Dec-04 02:30N 38°38' W 010°05'612.4
2017-Dec-04 02:00N 38°44' W 010°06'612.4
2017-Dec-04 01:30N 38°50' W 010°06'612.4
2017-Dec-04 01:00N 38°56' W 010°06'612.2
2017-Dec-04 00:30N 39°02' W 010°06'612.1
2017-Dec-04 00:00N 39°08' W 010°06'  
2017-Dec-01 14:41N 50°40' W 005°44'212.0
2017-Dec-01 14:30N 50°42' W 005°42'611.9
2017-Dec-01 14:01N 50°46' W 005°36'611.9
2017-Dec-01 13:30N 50°51' W 005°30'612.0
2017-Dec-01 13:00N 50°56' W 005°24'612.1
2017-Dec-01 12:30N 51°01' W 005°18'612.3
2017-Dec-01 12:00N 51°05' W 005°12'612.5
2017-Dec-01 11:30N 51°10' W 005°06'612.5
2017-Dec-01 11:00N 51°15' W 004°59'612.5
2017-Dec-01 10:30N 51°17' W 004°50'712.8
2017-Dec-01 09:57N 51°19' W 004°39'613.1
2017-Dec-01 09:31N 51°21' W 004°30'813.3
2017-Dec-01 08:55N 51°21' W 004°17'1614.4
2017-Dec-01 07:47N 51°21' W 003°51'1915.3
2017-Dec-01 06:34N 51°21' W 003°21'215.1
2017-Dec-01 06:27N 51°21' W 003°19'511.6
2017-Dec-01 06:00N 51°22' W 003°10'812.2
2017-Dec-01 05:22N 51°26' W 003°00'411.5
2017-Dec-01 05:00N 51°28' W 002°54'510.8
2017-Dec-01 04:30N 51°30' W 002°46'2 4.4
2017-Dec-01 04:00N 51°30' W 002°43'0 0.2
2017-Dec-01 03:30N 51°30' W 002°43'0 0.3
2017-Dec-01 03:00N 51°30' W 002°42'0 0.0
2017-Dec-01 02:30N 51°30' W 002°42'0 0.0
2017-Dec-01 02:00N 51°30' W 002°42'0 0.0
2017-Dec-01 01:30N 51°30' W 002°42'0 0.0
2017-Dec-01 01:00N 51°30' W 002°42'0 0.0
2017-Dec-01 00:30N 51°30' W 002°42'0 0.0
2017-Dec-01 00:00N 51°30' W 002°42'0 0.0
2017-Nov-30 23:30N 51°30' W 002°42'  
Track history (hours):
 
Tides and Currents Weather Stations Pressure Air Temp Water Temp Dewpoint Dewpoint Depression Visibility Wind Speed Wind Dir Waves Ship Positions

Blessing Sw

Last reported at 2017-Dec-10 23:24 UTC. Time now 2017-Dec-15 15:52 UTC.
Position N 36°10' E 026°31'.

Length 171 m; draft 8.6 m.

Type: Cargo ship. MMSI: 372085000.

Date/timePositionNaut miles runAvg speedWind from/ knotsBaromVisibWave heightAir tempDewpointWater temp
2017-Dec-10 23:24N 36°10' E 026°31'513.0
2017-Dec-10 22:59N 36°09' E 026°24'613.5
2017-Dec-10 22:30N 36°08' E 026°17'713.5
2017-Dec-10 22:00N 36°07' E 026°08'613.2
2017-Dec-10 21:31N 36°06' E 026°00'713.0
2017-Dec-10 21:01N 36°06' E 025°52'612.9
2017-Dec-10 20:31N 36°05' E 025°44'612.7
2017-Dec-10 20:00N 36°04' E 025°37'612.7
2017-Dec-10 19:31N 36°03' E 025°29'612.7
2017-Dec-10 19:01N 36°02' E 025°21'713.2
2017-Dec-10 18:30N 36°01' E 025°13'713.4
2017-Dec-10 18:00N 35°60' E 025°05'713.5
2017-Dec-10 17:31N 35°59' E 024°56'713.4
2017-Dec-10 17:00N 35°59' E 024°48'713.2
2017-Dec-10 16:30N 35°59' E 024°40'713.5
2017-Dec-10 16:01N 35°59' E 024°32'713.6
2017-Dec-10 15:31N 35°59' E 024°23'713.0
2017-Dec-10 15:01N 35°59' E 024°15'46512.9
2017-Dec-09 02:54N 36°06' E 014°41'513.2
2017-Dec-09 02:30N 36°08' E 014°35'613.0
2017-Dec-09 02:00N 36°11' E 014°27'713.1
2017-Dec-09 01:30N 36°13' E 014°20'613.0
2017-Dec-09 01:00N 36°16' E 014°12'712.8
2017-Dec-09 00:30N 36°18' E 014°05'612.8
2017-Dec-09 00:00N 36°21' E 013°58'612.9
2017-Dec-08 23:30N 36°23' E 013°50'  
2017-Dec-04 05:33N 38°01' W 009°54'112.6
2017-Dec-04 05:27N 38°02' W 009°55'3012.3
2017-Dec-04 03:02N 38°31' W 010°03'312.2
2017-Dec-04 02:49N 38°34' W 010°04'412.4
2017-Dec-04 02:30N 38°38' W 010°05'612.4
2017-Dec-04 02:00N 38°44' W 010°06'612.4
2017-Dec-04 01:30N 38°50' W 010°06'612.4
2017-Dec-04 01:00N 38°56' W 010°06'612.2
2017-Dec-04 00:30N 39°02' W 010°06'612.1
2017-Dec-04 00:00N 39°08' W 010°06'  
2017-Dec-01 14:41N 50°40' W 005°44'212.0
2017-Dec-01 14:30N 50°42' W 005°42'611.9
2017-Dec-01 14:01N 50°46' W 005°36'611.9
2017-Dec-01 13:30N 50°51' W 005°30'612.0
2017-Dec-01 13:00N 50°56' W 005°24'612.1
2017-Dec-01 12:30N 51°01' W 005°18'612.3
2017-Dec-01 12:00N 51°05' W 005°12'612.5
2017-Dec-01 11:30N 51°10' W 005°06'612.5
2017-Dec-01 11:00N 51°15' W 004°59'612.5
2017-Dec-01 10:30N 51°17' W 004°50'712.8
2017-Dec-01 09:57N 51°19' W 004°39'613.1
2017-Dec-01 09:31N 51°21' W 004°30'813.3
2017-Dec-01 08:55N 51°21' W 004°17'1614.4
2017-Dec-01 07:47N 51°21' W 003°51'1915.3
2017-Dec-01 06:34N 51°21' W 003°21'215.1
2017-Dec-01 06:27N 51°21' W 003°19'511.6
2017-Dec-01 06:00N 51°22' W 003°10'812.2
2017-Dec-01 05:22N 51°26' W 003°00'411.5
2017-Dec-01 05:00N 51°28' W 002°54'510.8
2017-Dec-01 04:30N 51°30' W 002°46'2 4.4
2017-Dec-01 04:00N 51°30' W 002°43'0 0.2
2017-Dec-01 03:30N 51°30' W 002°43'0 0.3
2017-Dec-01 03:00N 51°30' W 002°42'0 0.0
2017-Dec-01 02:30N 51°30' W 002°42'0 0.0
2017-Dec-01 02:00N 51°30' W 002°42'0 0.0
2017-Dec-01 01:30N 51°30' W 002°42'0 0.0
2017-Dec-01 01:00N 51°30' W 002°42'0 0.0
2017-Dec-01 00:30N 51°30' W 002°42'0 0.0
2017-Dec-01 00:00N 51°30' W 002°42'0 0.0
2017-Nov-30 23:30N 51°30' W 002°42'  

Dump ship's entire track history